GWI25C EDDH-EDDK
Flight info
| Callsign | GWI25C |
|---|---|
| Flight time | 0h 44m |
| Altitude | 26000 |
| Route | IDEKO8C IDEKO N850 WRB/N0395F220 P12 ESADU T858 KOPAG |
| Aircraft | A320/M-SDE3FGHIRWY/LB1 |
Departure
| Time | 2026-05-07 13:35 |
|---|---|
| Airport | Hamburg Helmut Schmidt Airport (EDDH) |
Arrival
| Time | 2026-05-07 14:19 |
|---|---|
| Airport | Cologne Bonn Airport (EDDK) |
| Time | Latitude | Longitude | Altitude | Speed | Heading |
|---|---|---|---|---|---|
| 2026-05-07 12:48 | 53.63206 | 10.00361 | 49 ft | 0 kts | 86° |
| 2026-05-07 12:51 | 53.63206 | 10.00375 | 50 ft | 0 kts | 86° |
| 2026-05-07 13:15 | 53.63206 | 10.00364 | 48 ft | 2 kts | 86° |
| 2026-05-07 13:15 | 53.63205 | 10.00331 | 48 ft | 3 kts | 86° |
| 2026-05-07 13:15 | 53.63203 | 10.00297 | 48 ft | 3 kts | 86° |
| 2026-05-07 13:15 | 53.63202 | 10.00263 | 48 ft | 3 kts | 86° |
| 2026-05-07 13:16 | 53.63202 | 10.00230 | 48 ft | 3 kts | 98° |
| 2026-05-07 13:16 | 53.63207 | 10.00199 | 48 ft | 3 kts | 126° |
| 2026-05-07 13:16 | 53.63219 | 10.00180 | 45 ft | 2 kts | 169° |
| 2026-05-07 13:16 | 53.63223 | 10.00178 | 45 ft | 0 kts | 176° |
| 2026-05-07 13:19 | 53.63199 | 10.00208 | 48 ft | 9 kts | 135° |
| 2026-05-07 13:20 | 53.63146 | 10.00254 | 48 ft | 8 kts | 172° |
| 2026-05-07 13:20 | 53.63092 | 10.00262 | 48 ft | 7 kts | 177° |
| 2026-05-07 13:20 | 53.63050 | 10.00239 | 48 ft | 6 kts | 202° |
| 2026-05-07 13:20 | 53.63016 | 10.00209 | 47 ft | 5 kts | 212° |
| 2026-05-07 13:21 | 53.62970 | 10.00158 | 48 ft | 9 kts | 213° |
| 2026-05-07 13:21 | 53.62923 | 10.00105 | 48 ft | 8 kts | 213° |
| 2026-05-07 13:21 | 53.62882 | 10.00058 | 48 ft | 7 kts | 215° |
| 2026-05-07 13:21 | 53.62849 | 10.00015 | 47 ft | 5 kts | 219° |
| 2026-05-07 13:22 | 53.62818 | 9.99975 | 48 ft | 6 kts | 216° |
| 2026-05-07 13:22 | 53.62795 | 9.99952 | 46 ft | 0 kts | 208° |
| 2026-05-07 13:22 | 53.62791 | 9.99948 | 47 ft | 1 kts | 208° |
| 2026-05-07 13:22 | 53.62783 | 9.99941 | 47 ft | 2 kts | 209° |
| 2026-05-07 13:23 | 53.62745 | 9.99906 | 46 ft | 9 kts | 209° |
| 2026-05-07 13:23 | 53.62694 | 9.99858 | 46 ft | 9 kts | 209° |
| 2026-05-07 13:23 | 53.62646 | 9.99788 | 46 ft | 9 kts | 243° |
| 2026-05-07 13:23 | 53.62628 | 9.99681 | 47 ft | 11 kts | 258° |
| 2026-05-07 13:24 | 53.62611 | 9.99516 | 47 ft | 15 kts | 259° |
| 2026-05-07 13:24 | 53.62593 | 9.99356 | 44 ft | 13 kts | 259° |
| 2026-05-07 13:24 | 53.62573 | 9.99181 | 47 ft | 23 kts | 259° |
| 2026-05-07 13:24 | 53.62537 | 9.98875 | 47 ft | 22 kts | 259° |
| 2026-05-07 13:25 | 53.62517 | 9.98692 | 47 ft | 15 kts | 260° |
| 2026-05-07 13:25 | 53.62498 | 9.98527 | 47 ft | 14 kts | 259° |
| 2026-05-07 13:25 | 53.62481 | 9.98373 | 47 ft | 13 kts | 259° |
| 2026-05-07 13:25 | 53.62450 | 9.98165 | 47 ft | 20 kts | 245° |
| 2026-05-07 13:26 | 53.62374 | 9.97980 | 47 ft | 18 kts | 230° |
| 2026-05-07 13:26 | 53.62297 | 9.97823 | 47 ft | 17 kts | 230° |
| 2026-05-07 13:26 | 53.62226 | 9.97678 | 47 ft | 15 kts | 231° |
| 2026-05-07 13:26 | 53.62179 | 9.97537 | 47 ft | 9 kts | 262° |
| 2026-05-07 13:27 | 53.62179 | 9.97508 | 47 ft | 0 kts | 273° |
| 2026-05-07 13:27 | 53.62181 | 9.97484 | 47 ft | 6 kts | 281° |
| 2026-05-07 13:27 | 53.62183 | 9.97474 | 46 ft | 0 kts | 287° |
| 2026-05-07 13:32 | 53.62185 | 9.97465 | 46 ft | 6 kts | 293° |
| 2026-05-07 13:32 | 53.62208 | 9.97408 | 44 ft | 0 kts | 312° |
| 2026-05-07 13:33 | 53.62209 | 9.97406 | 43 ft | 2 kts | 313° |
| 2026-05-07 13:33 | 53.62281 | 9.97361 | 40 ft | 18 kts | 3° |
| 2026-05-07 13:33 | 53.62350 | 9.97433 | 40 ft | 0 kts | 49° |
| 2026-05-07 13:34 | 53.62352 | 9.97437 | 40 ft | 1 kts | 49° |
| 2026-05-07 13:34 | 53.62612 | 9.97960 | 42 ft | 88 kts | 50° |
| 2026-05-07 13:34 | 53.63136 | 9.99019 | 48 ft | 144 kts | 50° |
| 2026-05-07 13:35 | 53.63798 | 10.00346 | 636 ft | 150 kts | 50° |
| 2026-05-07 13:35 | 53.64489 | 10.01704 | 1390 ft | 156 kts | 49° |
| 2026-05-07 13:35 | 53.65257 | 10.03220 | 1672 ft | 186 kts | 50° |
| 2026-05-07 13:35 | 53.66167 | 10.05025 | 1888 ft | 218 kts | 50° |
| 2026-05-07 13:36 | 53.67138 | 10.06975 | 2902 ft | 211 kts | 51° |
| 2026-05-07 13:36 | 53.68061 | 10.08873 | 3934 ft | 209 kts | 50° |
| 2026-05-07 13:36 | 53.69236 | 10.10265 | 4764 ft | 218 kts | 22° |
| 2026-05-07 13:36 | 53.70769 | 10.10398 | 5480 ft | 232 kts | 346° |
| 2026-05-07 13:37 | 53.72139 | 10.08811 | 6058 ft | 255 kts | 307° |
| 2026-05-07 13:37 | 53.72879 | 10.05971 | 6689 ft | 270 kts | 292° |
| 2026-05-07 13:37 | 53.73625 | 10.02987 | 7384 ft | 280 kts | 297° |
| 2026-05-07 13:37 | 53.74387 | 9.99941 | 8265 ft | 284 kts | 287° |
| 2026-05-07 13:38 | 53.74671 | 9.96672 | 9155 ft | 288 kts | 269° |
| 2026-05-07 13:38 | 53.74294 | 9.93343 | 10068 ft | 291 kts | 249° |
| 2026-05-07 13:38 | 53.73482 | 9.90106 | 10543 ft | 310 kts | 246° |
| 2026-05-07 13:38 | 53.72593 | 9.86643 | 10832 ft | 332 kts | 246° |
| 2026-05-07 13:39 | 53.71659 | 9.83002 | 11450 ft | 340 kts | 247° |
| 2026-05-07 13:39 | 53.70717 | 9.79315 | 12221 ft | 344 kts | 247° |
| 2026-05-07 13:39 | 53.69762 | 9.75579 | 13008 ft | 347 kts | 247° |
| 2026-05-07 13:39 | 53.68800 | 9.71816 | 13802 ft | 351 kts | 247° |
| 2026-05-07 13:40 | 53.67830 | 9.68023 | 14505 ft | 353 kts | 247° |
| 2026-05-07 13:40 | 53.66700 | 9.64335 | 15183 ft | 357 kts | 236° |
| 2026-05-07 13:40 | 53.65097 | 9.61178 | 15835 ft | 361 kts | 223° |
| 2026-05-07 13:40 | 53.63036 | 9.58721 | 16518 ft | 365 kts | 209° |
| 2026-05-07 13:41 | 53.60656 | 9.57163 | 17193 ft | 370 kts | 195° |
| 2026-05-07 13:41 | 53.58095 | 9.56497 | 17850 ft | 374 kts | 187° |
| 2026-05-07 13:41 | 53.55492 | 9.55987 | 18484 ft | 378 kts | 188° |
| 2026-05-07 13:41 | 53.52869 | 9.55481 | 19066 ft | 380 kts | 188° |
| 2026-05-07 13:42 | 53.50235 | 9.54969 | 19665 ft | 383 kts | 188° |
| 2026-05-07 13:42 | 53.47578 | 9.54451 | 20273 ft | 385 kts | 188° |
| 2026-05-07 13:42 | 53.44908 | 9.53927 | 20874 ft | 387 kts | 188° |
| 2026-05-07 13:42 | 53.42255 | 9.53406 | 21445 ft | 390 kts | 188° |
| 2026-05-07 13:43 | 53.39549 | 9.52877 | 22006 ft | 393 kts | 188° |
| 2026-05-07 13:43 | 53.36826 | 9.52341 | 22585 ft | 395 kts | 188° |
| 2026-05-07 13:43 | 53.34083 | 9.51798 | 23126 ft | 398 kts | 188° |
| 2026-05-07 13:43 | 53.31319 | 9.51256 | 23650 ft | 401 kts | 188° |
| 2026-05-07 13:44 | 53.28529 | 9.50715 | 24087 ft | 404 kts | 188° |
| 2026-05-07 13:44 | 53.25761 | 9.50177 | 24501 ft | 406 kts | 188° |
| 2026-05-07 13:44 | 53.22945 | 9.49623 | 24915 ft | 409 kts | 188° |
| 2026-05-07 13:44 | 53.20113 | 9.49064 | 25316 ft | 411 kts | 188° |
| 2026-05-07 13:45 | 53.17264 | 9.48505 | 25727 ft | 413 kts | 188° |
| 2026-05-07 13:45 | 53.14397 | 9.47948 | 26008 ft | 416 kts | 188° |
| 2026-05-07 13:45 | 53.11556 | 9.47396 | 26066 ft | 411 kts | 188° |
| 2026-05-07 13:45 | 53.08728 | 9.46848 | 26069 ft | 408 kts | 188° |
| 2026-05-07 13:46 | 53.05911 | 9.46301 | 26073 ft | 407 kts | 188° |
| 2026-05-07 13:46 | 53.03094 | 9.45755 | 26072 ft | 406 kts | 188° |
| 2026-05-07 13:46 | 53.00290 | 9.45213 | 26069 ft | 406 kts | 188° |
| 2026-05-07 13:46 | 52.97510 | 9.44667 | 26074 ft | 407 kts | 188° |
| 2026-05-07 13:47 | 52.94698 | 9.44086 | 26076 ft | 407 kts | 188° |
| 2026-05-07 13:47 | 52.91889 | 9.43483 | 26071 ft | 406 kts | 189° |
| 2026-05-07 13:47 | 52.89088 | 9.42868 | 26073 ft | 406 kts | 189° |
| 2026-05-07 13:47 | 52.86288 | 9.42255 | 26065 ft | 406 kts | 188° |
| 2026-05-07 13:48 | 52.83486 | 9.41646 | 26062 ft | 406 kts | 188° |
| 2026-05-07 13:48 | 52.80665 | 9.41042 | 26064 ft | 407 kts | 188° |
| 2026-05-07 13:48 | 52.77860 | 9.40446 | 26058 ft | 407 kts | 188° |
| 2026-05-07 13:48 | 52.75054 | 9.39855 | 26063 ft | 407 kts | 188° |
| 2026-05-07 13:49 | 52.72243 | 9.39259 | 26067 ft | 407 kts | 188° |
| 2026-05-07 13:49 | 52.69469 | 9.38665 | 26066 ft | 407 kts | 188° |
| 2026-05-07 13:49 | 52.66657 | 9.38068 | 26074 ft | 407 kts | 188° |
| 2026-05-07 13:49 | 52.63847 | 9.37473 | 26064 ft | 407 kts | 188° |
| 2026-05-07 13:50 | 52.61036 | 9.36864 | 26061 ft | 407 kts | 189° |
| 2026-05-07 13:50 | 52.58243 | 9.36181 | 26060 ft | 406 kts | 189° |
| 2026-05-07 13:50 | 52.55437 | 9.35436 | 26060 ft | 407 kts | 190° |
| 2026-05-07 13:50 | 52.52638 | 9.34671 | 26066 ft | 407 kts | 191° |
| 2026-05-07 13:51 | 52.49880 | 9.33915 | 26073 ft | 407 kts | 190° |
| 2026-05-07 13:51 | 52.47094 | 9.33164 | 26068 ft | 406 kts | 189° |
| 2026-05-07 13:51 | 52.44301 | 9.32418 | 26068 ft | 406 kts | 190° |
| 2026-05-07 13:51 | 52.41503 | 9.31678 | 26070 ft | 407 kts | 189° |
| 2026-05-07 13:52 | 52.38699 | 9.30945 | 26068 ft | 406 kts | 189° |
| 2026-05-07 13:52 | 52.35908 | 9.30225 | 26070 ft | 406 kts | 190° |
| 2026-05-07 13:52 | 52.33108 | 9.29506 | 26072 ft | 406 kts | 189° |
| 2026-05-07 13:52 | 52.30353 | 9.28794 | 26072 ft | 406 kts | 189° |
| 2026-05-07 13:53 | 52.27555 | 9.28065 | 26072 ft | 406 kts | 190° |
| 2026-05-07 13:53 | 52.24763 | 9.27331 | 26078 ft | 406 kts | 190° |
| 2026-05-07 13:53 | 52.21965 | 9.26622 | 26077 ft | 406 kts | 189° |
| 2026-05-07 13:53 | 52.19163 | 9.26032 | 26075 ft | 406 kts | 188° |
| 2026-05-07 13:54 | 52.16349 | 9.25532 | 26072 ft | 406 kts | 186° |
| 2026-05-07 13:54 | 52.13533 | 9.25072 | 26064 ft | 407 kts | 187° |
| 2026-05-07 13:54 | 52.10713 | 9.24617 | 26066 ft | 407 kts | 186° |
| 2026-05-07 13:54 | 52.07892 | 9.24153 | 26069 ft | 406 kts | 187° |
| 2026-05-07 13:55 | 52.05110 | 9.23674 | 26069 ft | 406 kts | 187° |
| 2026-05-07 13:55 | 52.02303 | 9.23076 | 26066 ft | 406 kts | 190° |
| 2026-05-07 13:55 | 51.99480 | 9.22351 | 26074 ft | 417 kts | 190° |
| 2026-05-07 13:55 | 51.96576 | 9.21539 | 26075 ft | 429 kts | 191° |
| 2026-05-07 13:56 | 51.93591 | 9.20687 | 26075 ft | 440 kts | 191° |
| 2026-05-07 13:56 | 51.91579 | 9.20119 | 26069 ft | 444 kts | 190° |
| 2026-05-07 13:56 | 51.87518 | 9.19015 | 26068 ft | 447 kts | 189° |
| 2026-05-07 13:56 | 51.84433 | 9.18274 | 26067 ft | 448 kts | 189° |
| 2026-05-07 13:57 | 51.81338 | 9.17606 | 26071 ft | 448 kts | 188° |
| 2026-05-07 13:57 | 51.79288 | 9.17185 | 26070 ft | 448 kts | 188° |
| 2026-05-07 13:57 | 51.76185 | 9.16558 | 26071 ft | 448 kts | 187° |
| 2026-05-07 13:57 | 51.73084 | 9.15926 | 26068 ft | 449 kts | 188° |
| 2026-05-07 13:58 | 51.69986 | 9.15284 | 26068 ft | 449 kts | 188° |
| 2026-05-07 13:58 | 51.66884 | 9.14627 | 26071 ft | 449 kts | 188° |
| 2026-05-07 13:58 | 51.63788 | 9.13958 | 26069 ft | 449 kts | 188° |
| 2026-05-07 13:58 | 51.60723 | 9.13044 | 26062 ft | 448 kts | 198° |
| 2026-05-07 13:59 | 51.57898 | 9.10993 | 26062 ft | 446 kts | 213° |
| 2026-05-07 13:59 | 51.55520 | 9.07806 | 26066 ft | 444 kts | 228° |
| 2026-05-07 13:59 | 51.53734 | 9.03768 | 26065 ft | 444 kts | 239° |
| 2026-05-07 13:59 | 51.52152 | 8.99568 | 26061 ft | 444 kts | 239° |
| 2026-05-07 14:00 | 51.50557 | 8.95315 | 26062 ft | 444 kts | 239° |
| 2026-05-07 14:00 | 51.48958 | 8.91058 | 26063 ft | 444 kts | 239° |
| 2026-05-07 14:00 | 51.47359 | 8.86816 | 26061 ft | 444 kts | 239° |
| 2026-05-07 14:00 | 51.45755 | 8.82574 | 26062 ft | 444 kts | 239° |
| 2026-05-07 14:01 | 51.44171 | 8.78390 | 26060 ft | 445 kts | 239° |
| 2026-05-07 14:01 | 51.42566 | 8.74155 | 26060 ft | 445 kts | 239° |
| 2026-05-07 14:01 | 51.40954 | 8.69920 | 26062 ft | 445 kts | 239° |
| 2026-05-07 14:01 | 51.39340 | 8.65702 | 26057 ft | 445 kts | 238° |
| 2026-05-07 14:02 | 51.37720 | 8.61479 | 25999 ft | 443 kts | 239° |
| 2026-05-07 14:02 | 51.36120 | 8.57315 | 25427 ft | 434 kts | 239° |
| 2026-05-07 14:02 | 51.34553 | 8.53233 | 24855 ft | 427 kts | 239° |
| 2026-05-07 14:02 | 51.33013 | 8.49218 | 24305 ft | 420 kts | 239° |
| 2026-05-07 14:03 | 51.31498 | 8.45264 | 23750 ft | 414 kts | 239° |
| 2026-05-07 14:03 | 51.30003 | 8.41360 | 23133 ft | 409 kts | 239° |
| 2026-05-07 14:03 | 51.28537 | 8.37547 | 22508 ft | 405 kts | 239° |
| 2026-05-07 14:03 | 51.27067 | 8.33736 | 21886 ft | 401 kts | 239° |
| 2026-05-07 14:04 | 51.25552 | 8.30000 | 21288 ft | 407 kts | 232° |
| 2026-05-07 14:04 | 51.23480 | 8.26722 | 20688 ft | 425 kts | 221° |
| 2026-05-07 14:04 | 51.21243 | 8.23701 | 20097 ft | 414 kts | 221° |
| 2026-05-07 14:04 | 51.19088 | 8.20838 | 19530 ft | 393 kts | 220° |
| 2026-05-07 14:05 | 51.17027 | 8.18113 | 18968 ft | 376 kts | 220° |
| 2026-05-07 14:05 | 51.15052 | 8.15504 | 18427 ft | 362 kts | 220° |
| 2026-05-07 14:05 | 51.13154 | 8.12989 | 17951 ft | 345 kts | 221° |
| 2026-05-07 14:05 | 51.11337 | 8.10586 | 17491 ft | 335 kts | 221° |
| 2026-05-07 14:06 | 51.09581 | 8.08259 | 17046 ft | 331 kts | 221° |
| 2026-05-07 14:06 | 51.07815 | 8.05915 | 16596 ft | 328 kts | 221° |
| 2026-05-07 14:06 | 51.06064 | 8.03595 | 16159 ft | 327 kts | 221° |
| 2026-05-07 14:06 | 51.04313 | 8.01282 | 15714 ft | 326 kts | 221° |
| 2026-05-07 14:07 | 51.02563 | 7.98976 | 15283 ft | 326 kts | 221° |
| 2026-05-07 14:07 | 51.00823 | 7.96682 | 14860 ft | 325 kts | 221° |
| 2026-05-07 14:07 | 50.99084 | 7.94388 | 14436 ft | 324 kts | 221° |
| 2026-05-07 14:07 | 50.97364 | 7.92097 | 14005 ft | 320 kts | 222° |
| 2026-05-07 14:08 | 50.95694 | 7.89853 | 13541 ft | 309 kts | 221° |
| 2026-05-07 14:08 | 50.94079 | 7.87673 | 13047 ft | 301 kts | 222° |
| 2026-05-07 14:08 | 50.92491 | 7.85527 | 12585 ft | 299 kts | 221° |
| 2026-05-07 14:08 | 50.90916 | 7.83404 | 12118 ft | 296 kts | 221° |
| 2026-05-07 14:09 | 50.89345 | 7.81294 | 11660 ft | 295 kts | 222° |
| 2026-05-07 14:09 | 50.87808 | 7.79230 | 11206 ft | 293 kts | 222° |
| 2026-05-07 14:09 | 50.86238 | 7.77124 | 10753 ft | 291 kts | 223° |
| 2026-05-07 14:09 | 50.84714 | 7.75086 | 10327 ft | 289 kts | 221° |
| 2026-05-07 14:10 | 50.83174 | 7.73032 | 9867 ft | 290 kts | 221° |
| 2026-05-07 14:10 | 50.81630 | 7.70975 | 9392 ft | 291 kts | 221° |
| 2026-05-07 14:10 | 50.80078 | 7.68908 | 8910 ft | 292 kts | 222° |
| 2026-05-07 14:10 | 50.78525 | 7.66839 | 8444 ft | 292 kts | 221° |
| 2026-05-07 14:11 | 50.76967 | 7.64787 | 7976 ft | 292 kts | 221° |
| 2026-05-07 14:11 | 50.75399 | 7.62735 | 7513 ft | 291 kts | 220° |
| 2026-05-07 14:11 | 50.73839 | 7.60705 | 7062 ft | 290 kts | 220° |
| 2026-05-07 14:11 | 50.72279 | 7.58683 | 6606 ft | 289 kts | 221° |
| 2026-05-07 14:12 | 50.70762 | 7.56708 | 6149 ft | 275 kts | 223° |
| 2026-05-07 14:12 | 50.69550 | 7.54486 | 5684 ft | 261 kts | 241° |
| 2026-05-07 14:12 | 50.68824 | 7.51947 | 5217 ft | 249 kts | 256° |
| 2026-05-07 14:12 | 50.68413 | 7.49341 | 4754 ft | 240 kts | 259° |
| 2026-05-07 14:13 | 50.68265 | 7.46780 | 4287 ft | 231 kts | 277° |
| 2026-05-07 14:13 | 50.68599 | 7.44381 | 3835 ft | 226 kts | 289° |
| 2026-05-07 14:13 | 50.69075 | 7.41996 | 3376 ft | 227 kts | 289° |
| 2026-05-07 14:13 | 50.69652 | 7.39727 | 3010 ft | 217 kts | 305° |
| 2026-05-07 14:14 | 50.70604 | 7.38040 | 3002 ft | 199 kts | 320° |
| 2026-05-07 14:14 | 50.71613 | 7.36597 | 3002 ft | 193 kts | 319° |
| 2026-05-07 14:14 | 50.72612 | 7.35164 | 3012 ft | 195 kts | 319° |
| 2026-05-07 14:14 | 50.73609 | 7.33734 | 3001 ft | 194 kts | 319° |
| 2026-05-07 14:15 | 50.74611 | 7.32294 | 3003 ft | 194 kts | 319° |
| 2026-05-07 14:15 | 50.75604 | 7.30866 | 2957 ft | 191 kts | 318° |
| 2026-05-07 14:15 | 50.76583 | 7.29459 | 2717 ft | 190 kts | 319° |
| 2026-05-07 14:15 | 50.77519 | 7.28112 | 2470 ft | 179 kts | 319° |
| 2026-05-07 14:16 | 50.78417 | 7.26819 | 2241 ft | 170 kts | 319° |
| 2026-05-07 14:16 | 50.79259 | 7.25606 | 2017 ft | 165 kts | 319° |
| 2026-05-07 14:16 | 50.80076 | 7.24428 | 1787 ft | 152 kts | 319° |
| 2026-05-07 14:16 | 50.80818 | 7.23358 | 1622 ft | 138 kts | 318° |
| 2026-05-07 14:17 | 50.81525 | 7.22337 | 1421 ft | 136 kts | 317° |
| 2026-05-07 14:17 | 50.82211 | 7.21346 | 1226 ft | 132 kts | 319° |
| 2026-05-07 14:17 | 50.82890 | 7.20374 | 1031 ft | 133 kts | 319° |
| 2026-05-07 14:17 | 50.83569 | 7.19397 | 874 ft | 132 kts | 318° |
| 2026-05-07 14:18 | 50.84246 | 7.18390 | 722 ft | 133 kts | 318° |
| 2026-05-07 14:18 | 50.84930 | 7.17405 | 537 ft | 133 kts | 318° |
| 2026-05-07 14:18 | 50.85609 | 7.16433 | 348 ft | 130 kts | 319° |
| 2026-05-07 14:18 | 50.86233 | 7.15543 | 273 ft | 104 kts | 316° |
| 2026-05-07 14:19 | 50.86635 | 7.14954 | 262 ft | 54 kts | 317° |
| 2026-05-07 14:19 | 50.86802 | 7.14706 | 257 ft | 24 kts | 309° |
| 2026-05-07 14:19 | 50.86872 | 7.14462 | 257 ft | 24 kts | 284° |
| 2026-05-07 14:19 | 50.86890 | 7.14298 | 259 ft | 4 kts | 280° |
| 2026-05-07 14:20 | 50.86891 | 7.14297 | 259 ft | 0 kts | 280° |
| 2026-05-07 14:20 | 50.86891 | 7.14295 | 259 ft | 1 kts | 280° |
| 2026-05-07 14:20 | 50.86902 | 7.14197 | 254 ft | 16 kts | 279° |
| 2026-05-07 14:20 | 50.86920 | 7.14024 | 251 ft | 16 kts | 280° |
| 2026-05-07 14:21 | 50.86982 | 7.13838 | 243 ft | 21 kts | 311° |
| 2026-05-07 14:21 | 50.87097 | 7.13671 | 241 ft | 24 kts | 317° |
| 2026-05-07 14:21 | 50.87225 | 7.13488 | 237 ft | 26 kts | 317° |
| 2026-05-07 14:21 | 50.87366 | 7.13282 | 233 ft | 29 kts | 317° |
| 2026-05-07 14:22 | 50.87513 | 7.13069 | 232 ft | 22 kts | 316° |
| 2026-05-07 14:22 | 50.87631 | 7.12895 | 231 ft | 24 kts | 317° |
| 2026-05-07 14:22 | 50.87754 | 7.12720 | 230 ft | 19 kts | 318° |
| 2026-05-07 14:22 | 50.87871 | 7.12610 | 230 ft | 21 kts | 357° |
| 2026-05-07 14:23 | 50.87976 | 7.12531 | 231 ft | 18 kts | 316° |
| 2026-05-07 14:23 | 50.88044 | 7.12428 | 230 ft | 15 kts | 314° |
| 2026-05-07 14:23 | 50.88112 | 7.12294 | 232 ft | 12 kts | 307° |
| 2026-05-07 14:23 | 50.88166 | 7.12178 | 230 ft | 14 kts | 306° |
| 2026-05-07 14:24 | 50.88201 | 7.12098 | 232 ft | 5 kts | 298° |
| 2026-05-07 14:24 | 50.88199 | 7.12051 | 230 ft | 3 kts | 229° |
| 2026-05-07 14:24 | 50.88182 | 7.12032 | 232 ft | 3 kts | 216° |
| 2026-05-07 14:24 | 50.88156 | 7.12004 | 232 ft | 5 kts | 215° |
| 2026-05-07 14:25 | 50.88152 | 7.11999 | 231 ft | 0 kts | 217° |
| 2026-05-07 14:28 | 50.88152 | 7.12000 | 231 ft | 0 kts | 216° |